createdAt,value
2023-03-31T00:00:03.951Z,12.300000
2023-03-31T00:01:00.918Z,7.000000
2023-03-31T00:02:00.792Z,7.000000
2023-03-31T00:03:00.830Z,7.000000
2023-03-31T00:04:01.115Z,7.000000
2023-03-31T00:05:06.069Z,7.000000
2023-03-31T00:06:00.887Z,6.800000
2023-03-31T00:07:00.757Z,6.800000
2023-03-31T00:08:00.811Z,6.800000
2023-03-31T00:09:00.748Z,14.200000
2023-03-31T00:10:16.467Z,14.200000
2023-03-31T00:11:00.738Z,14.200000
2023-03-31T00:12:00.888Z,14.200000
2023-03-31T00:13:00.822Z,14.200000
2023-03-31T00:14:00.925Z,11.500000
2023-03-31T00:15:04.859Z,11.500000
2023-03-31T00:16:00.866Z,11.500000
2023-03-31T00:17:00.823Z,12.400000
2023-03-31T00:18:00.975Z,12.400000
2023-03-31T00:19:00.811Z,12.400000
2023-03-31T00:20:03.785Z,12.400000
2023-03-31T00:21:02.515Z,5.300000
2023-03-31T00:22:00.970Z,5.300000
2023-03-31T00:23:00.792Z,5.300000
2023-03-31T00:24:00.926Z,5.200000
2023-03-31T00:25:03.719Z,5.200000
2023-03-31T00:26:00.980Z,4.500000
2023-03-31T00:27:00.825Z,4.500000
2023-03-31T00:28:00.978Z,4.500000
2023-03-31T00:29:00.843Z,4.500000
2023-03-31T00:30:05.269Z,4.500000
2023-03-31T00:31:00.825Z,4.500000
2023-03-31T00:32:01.042Z,4.000000
2023-03-31T00:33:00.908Z,4.000000
2023-03-31T00:34:01.027Z,6.600000
2023-03-31T00:35:03.493Z,6.600000
2023-03-31T00:36:01.076Z,6.600000
2023-03-31T00:37:00.845Z,7.800000
2023-03-31T00:38:00.976Z,7.800000
2023-03-31T00:39:00.856Z,7.800000
2023-03-31T00:40:04.201Z,7.800000
2023-03-31T00:41:00.864Z,4.900000
2023-03-31T00:42:01.105Z,4.900000
2023-03-31T00:43:00.871Z,4.900000
2023-03-31T00:44:00.996Z,4.000000
2023-03-31T00:45:05.453Z,4.000000
2023-03-31T00:46:01.053Z,6.000000
2023-03-31T00:47:00.922Z,6.000000
2023-03-31T00:48:01.154Z,6.000000
2023-03-31T00:49:00.900Z,6.000000
2023-03-31T00:50:06.312Z,6.000000
2023-03-31T00:51:00.915Z,0.000000
2023-03-31T00:52:01.033Z,0.000000
2023-03-31T00:53:00.918Z,0.000000
2023-03-31T00:54:01.271Z,4.700000
2023-03-31T00:55:05.710Z,4.700000
2023-03-31T00:56:01.108Z,4.700000
2023-03-31T00:57:00.958Z,0.000000
2023-03-31T00:58:01.041Z,0.000000
2023-03-31T00:59:00.948Z,0.000000
2023-03-31T01:00:06.339Z,0.000000
2023-03-31T01:01:01.015Z,4.400000
2023-03-31T01:02:01.117Z,4.400000
2023-03-31T01:03:00.993Z,4.400000
2023-03-31T01:04:02.210Z,5.700000
2023-03-31T01:05:03.644Z,5.700000
2023-03-31T01:06:01.128Z,5.700000
2023-03-31T01:07:01.052Z,5.700000
2023-03-31T01:08:01.124Z,5.700000
2023-03-31T01:09:00.999Z,5.700000
2023-03-31T01:10:04.255Z,5.700000
2023-03-31T01:11:00.995Z,5.700000
2023-03-31T01:12:01.121Z,5.700000
2023-03-31T01:13:01.016Z,5.700000
2023-03-31T01:14:01.139Z,6.400000
2023-03-31T01:15:03.776Z,6.400000
2023-03-31T01:16:01.217Z,6.400000
2023-03-31T01:17:01.158Z,8.700000
2023-03-31T01:18:01.385Z,8.700000
2023-03-31T01:19:01.065Z,8.700000
2023-03-31T01:20:04.505Z,8.700000
2023-03-31T01:21:01.082Z,8.700000
2023-03-31T01:22:01.183Z,8.000000
2023-03-31T01:23:01.089Z,8.000000
2023-03-31T01:24:01.245Z,8.000000
2023-03-31T01:25:05.801Z,8.000000
2023-03-31T01:26:01.292Z,8.000000
2023-03-31T01:27:01.112Z,7.500000
2023-03-31T01:28:01.214Z,7.500000
2023-03-31T01:29:01.101Z,7.500000
2023-03-31T01:30:04.790Z,7.500000
2023-03-31T01:31:01.159Z,7.500000
2023-03-31T01:32:01.298Z,7.500000
2023-03-31T01:33:01.143Z,7.500000
2023-03-31T01:34:01.327Z,7.500000
2023-03-31T01:35:04.098Z,10.800000
2023-03-31T01:36:01.299Z,10.800000
2023-03-31T01:37:01.134Z,10.800000
2023-03-31T01:38:01.281Z,10.800000
2023-03-31T01:39:01.176Z,10.800000
2023-03-31T01:40:05.189Z,7.300000
2023-03-31T01:41:01.168Z,7.300000
2023-03-31T01:42:01.338Z,6.800000
2023-03-31T01:43:01.303Z,6.800000
2023-03-31T01:44:01.294Z,6.800000
2023-03-31T01:45:03.992Z,7.200000
2023-03-31T01:46:01.375Z,7.200000
2023-03-31T01:47:01.174Z,8.000000
2023-03-31T01:48:01.500Z,8.000000
2023-03-31T01:49:01.189Z,8.000000
2023-03-31T01:50:04.433Z,11.000000
2023-03-31T01:51:01.228Z,11.000000
2023-03-31T01:52:01.370Z,11.000000
2023-03-31T01:53:01.212Z,10.200000
2023-03-31T01:54:00.404Z,10.200000
2023-03-31T01:55:02.832Z,8.900000
2023-03-31T01:56:00.392Z,8.900000
2023-03-31T01:57:00.285Z,8.900000
2023-03-31T01:58:00.358Z,8.900000
2023-03-31T01:59:00.227Z,8.100000
2023-03-31T02:00:04.926Z,8.100000
2023-03-31T02:01:00.244Z,8.100000
2023-03-31T02:02:00.468Z,6.700000
2023-03-31T02:03:00.344Z,6.700000
2023-03-31T02:04:00.430Z,6.700000
2023-03-31T02:05:03.019Z,8.000000
2023-03-31T02:06:00.424Z,8.000000
2023-03-31T02:07:00.278Z,8.900000
2023-03-31T02:08:00.417Z,8.900000
2023-03-31T02:09:00.288Z,8.900000
2023-03-31T02:10:03.433Z,8.900000
2023-03-31T02:11:00.283Z,8.900000
2023-03-31T02:12:00.439Z,12.900000
2023-03-31T02:13:00.290Z,12.900000
2023-03-31T02:14:00.378Z,12.900000
2023-03-31T02:15:04.447Z,11.300000
2023-03-31T02:16:00.514Z,11.300000
2023-03-31T02:17:00.319Z,10.600000
2023-03-31T02:18:00.475Z,10.600000
2023-03-31T02:19:00.327Z,10.600000
2023-03-31T02:20:03.568Z,10.600000
2023-03-31T02:21:00.338Z,10.600000
2023-03-31T02:22:00.482Z,10.600000
2023-03-31T02:23:00.334Z,8.600000
2023-03-31T02:24:00.572Z,8.600000
2023-03-31T02:25:02.987Z,8.600000
2023-03-31T02:26:00.461Z,10.500000
2023-03-31T02:27:00.353Z,10.500000
2023-03-31T02:28:00.490Z,10.500000
2023-03-31T02:29:00.362Z,10.500000
2023-03-31T02:30:03.571Z,11.300000
2023-03-31T02:31:00.380Z,11.300000
2023-03-31T02:32:00.636Z,11.300000
2023-03-31T02:33:00.419Z,11.300000
2023-03-31T02:34:00.500Z,10.800000
2023-03-31T02:35:05.315Z,10.800000
2023-03-31T02:36:00.619Z,10.800000
2023-03-31T02:37:00.391Z,10.800000
2023-03-31T02:38:00.575Z,6.800000
2023-03-31T02:39:00.415Z,6.800000
2023-03-31T02:40:03.402Z,6.800000
2023-03-31T02:41:00.567Z,9.100000
2023-03-31T02:42:00.549Z,9.100000
2023-03-31T02:43:00.417Z,9.100000
2023-03-31T02:44:00.843Z,9.100000
2023-03-31T02:45:03.514Z,9.100000
2023-03-31T02:46:00.563Z,8.400000
2023-03-31T02:47:00.477Z,8.400000
2023-03-31T02:48:00.631Z,8.400000
2023-03-31T02:49:00.462Z,5.900000
2023-03-31T02:50:04.030Z,5.900000
2023-03-31T02:51:00.506Z,6.100000
2023-03-31T02:52:00.641Z,6.100000
2023-03-31T02:53:00.486Z,6.100000
2023-03-31T02:54:00.585Z,6.900000
2023-03-31T02:55:03.160Z,6.900000
2023-03-31T02:56:00.711Z,6.900000
2023-03-31T02:57:00.576Z,6.900000
2023-03-31T02:58:00.770Z,6.900000
2023-03-31T02:59:00.514Z,6.900000
2023-03-31T03:00:05.006Z,6.900000
2023-03-31T03:01:00.567Z,6.800000
2023-03-31T03:02:00.658Z,6.800000
2023-03-31T03:03:00.579Z,6.800000
2023-03-31T03:05:08.512Z,7.000000
2023-03-31T03:06:02.527Z,7.400000
2023-03-31T03:07:00.589Z,7.400000
2023-03-31T03:08:00.649Z,7.400000
2023-03-31T03:09:00.593Z,6.900000
2023-03-31T03:10:03.547Z,6.900000
2023-03-31T03:11:00.624Z,6.700000
2023-03-31T03:12:00.717Z,6.700000
2023-03-31T03:13:00.596Z,6.700000
2023-03-31T03:14:00.672Z,6.700000
2023-03-31T03:15:05.989Z,6.700000
2023-03-31T03:16:00.674Z,6.700000
2023-03-31T03:17:00.680Z,6.700000
2023-03-31T03:18:00.758Z,7.600000
2023-03-31T03:19:00.612Z,7.600000
2023-03-31T03:20:03.545Z,7.600000
2023-03-31T03:21:00.626Z,7.600000
2023-03-31T03:22:00.724Z,7.600000
2023-03-31T03:23:00.699Z,7.600000
2023-03-31T03:24:00.731Z,6.400000
2023-03-31T03:25:03.418Z,6.400000
2023-03-31T03:26:00.736Z,6.500000
2023-03-31T03:27:00.661Z,6.500000
2023-03-31T03:28:00.726Z,6.500000
2023-03-31T03:29:00.692Z,6.500000
2023-03-31T03:30:06.648Z,6.500000
2023-03-31T03:31:00.747Z,6.500000
2023-03-31T03:32:00.779Z,6.500000
2023-03-31T03:33:00.784Z,6.500000
2023-03-31T03:34:00.813Z,6.800000
2023-03-31T03:35:03.376Z,6.800000
2023-03-31T03:36:00.854Z,7.000000
2023-03-31T03:37:00.808Z,7.000000
2023-03-31T03:38:00.906Z,7.000000
2023-03-31T03:39:00.834Z,7.000000
2023-03-31T03:40:03.924Z,7.000000
2023-03-31T03:41:00.761Z,8.800000
2023-03-31T03:42:00.824Z,8.800000
2023-03-31T03:43:00.749Z,8.800000
2023-03-31T03:44:00.825Z,8.800000
2023-03-31T03:45:21.610Z,8.800000
2023-03-31T03:46:01.008Z,8.100000
2023-03-31T03:47:00.791Z,8.100000
2023-03-31T03:48:00.903Z,8.100000
2023-03-31T03:49:00.769Z,8.100000
2023-03-31T03:50:51.677Z,8.100000
2023-03-31T03:51:00.803Z,8.100000
2023-03-31T03:52:00.859Z,8.100000
2023-03-31T03:53:00.822Z,8.100000
2023-03-31T03:54:00.885Z,7.800000
2023-03-31T03:55:03.765Z,7.800000
2023-03-31T03:56:00.864Z,7.700000
2023-03-31T03:57:00.845Z,7.700000
2023-03-31T03:58:00.871Z,7.700000
2023-03-31T03:59:00.928Z,8.600000
2023-03-31T04:00:09.521Z,8.600000
2023-03-31T04:01:00.825Z,8.600000
2023-03-31T04:02:00.949Z,8.600000
2023-03-31T04:03:00.887Z,8.600000
2023-03-31T04:04:00.912Z,8.000000
2023-03-31T04:05:05.146Z,8.000000
2023-03-31T04:06:00.924Z,8.000000
2023-03-31T04:07:00.855Z,9.500000
2023-03-31T04:08:00.944Z,9.500000
2023-03-31T04:09:00.864Z,9.500000
2023-03-31T04:10:04.292Z,9.500000
2023-03-31T04:11:00.886Z,9.500000
2023-03-31T04:12:00.960Z,8.500000
2023-03-31T04:13:00.888Z,8.500000
2023-03-31T04:14:00.947Z,7.900000
2023-03-31T04:15:03.750Z,7.900000
2023-03-31T04:16:00.996Z,7.900000
2023-03-31T04:17:00.922Z,8.300000
2023-03-31T04:18:00.974Z,8.300000
2023-03-31T04:19:00.898Z,10.000000
2023-03-31T04:20:05.468Z,10.000000
2023-03-31T04:21:00.922Z,10.000000
2023-03-31T04:22:00.989Z,9.400000
2023-03-31T04:23:00.953Z,9.400000
2023-03-31T04:24:01.002Z,9.200000
2023-03-31T04:25:12.267Z,9.200000
2023-03-31T04:26:01.012Z,9.200000
2023-03-31T04:27:00.952Z,9.900000
2023-03-31T04:28:01.024Z,9.900000
2023-03-31T04:29:00.993Z,9.900000
2023-03-31T04:30:05.439Z,9.900000
2023-03-31T04:31:00.967Z,9.900000
2023-03-31T04:32:01.116Z,9.200000
2023-03-31T04:33:01.187Z,9.200000
2023-03-31T04:34:01.045Z,11.200000
2023-03-31T04:35:03.976Z,11.200000
2023-03-31T04:36:01.116Z,11.200000
2023-03-31T04:37:00.988Z,11.200000
2023-03-31T04:38:01.096Z,11.200000
2023-03-31T04:39:01.058Z,8.400000
2023-03-31T04:40:04.898Z,8.400000
2023-03-31T04:41:01.043Z,8.400000
2023-03-31T04:42:01.174Z,10.900000
2023-03-31T04:43:01.043Z,10.900000
2023-03-31T04:44:01.125Z,10.900000
2023-03-31T04:45:03.823Z,10.900000
2023-03-31T04:46:01.234Z,10.900000
2023-03-31T04:47:01.049Z,10.500000
2023-03-31T04:48:01.160Z,10.500000
2023-03-31T04:49:01.077Z,10.500000
2023-03-31T04:50:04.459Z,10.200000
2023-03-31T04:51:01.083Z,10.200000
2023-03-31T04:52:01.176Z,10.200000
2023-03-31T04:53:01.085Z,11.000000
2023-03-31T04:54:01.163Z,11.000000
2023-03-31T04:55:03.774Z,15.900000
2023-03-31T04:56:01.186Z,15.900000
2023-03-31T04:57:01.149Z,12.500000
2023-03-31T04:58:01.199Z,12.500000
2023-03-31T04:59:01.122Z,13.700000
2023-03-31T05:00:06.163Z,13.700000
2023-03-31T05:01:01.102Z,13.700000
2023-03-31T05:02:01.194Z,13.700000
2023-03-31T05:03:01.240Z,13.700000
2023-03-31T05:04:01.251Z,13.700000
2023-03-31T05:05:04.113Z,10.900000
2023-03-31T05:06:01.213Z,10.900000
2023-03-31T05:07:01.130Z,10.700000
2023-03-31T05:08:01.208Z,10.700000
2023-03-31T05:09:01.196Z,10.700000
2023-03-31T05:10:04.414Z,10.700000
2023-03-31T05:11:01.147Z,10.700000
2023-03-31T05:12:01.281Z,12.600000
2023-03-31T05:13:01.160Z,12.600000
2023-03-31T05:14:01.224Z,12.600000
2023-03-31T05:15:03.984Z,10.600000
2023-03-31T05:16:01.405Z,10.600000
2023-03-31T05:17:01.205Z,11.100000
2023-03-31T05:18:01.258Z,11.100000
2023-03-31T05:19:01.173Z,11.200000
2023-03-31T05:20:05.236Z,11.200000
2023-03-31T05:21:01.197Z,11.200000
2023-03-31T05:22:01.330Z,12.600000
2023-03-31T05:23:01.179Z,12.600000
2023-03-31T05:24:01.269Z,12.600000
2023-03-31T05:25:04.129Z,11.200000
2023-03-31T05:26:00.405Z,11.200000
2023-03-31T05:27:00.406Z,11.200000
2023-03-31T05:28:00.534Z,11.900000
2023-03-31T05:29:00.428Z,11.900000
2023-03-31T05:30:03.774Z,20.900000
2023-03-31T05:31:00.412Z,20.900000
2023-03-31T05:32:00.555Z,20.900000
2023-03-31T05:33:00.470Z,20.900000
2023-03-31T05:34:07.708Z,20.900000
2023-03-31T05:35:03.227Z,9.900000
2023-03-31T05:36:00.608Z,9.900000
2023-03-31T05:37:00.439Z,9.900000
2023-03-31T05:38:00.524Z,10.600000
2023-03-31T05:39:00.457Z,10.600000
2023-03-31T05:40:05.299Z,10.600000
2023-03-31T05:41:00.456Z,10.600000
2023-03-31T05:42:00.630Z,10.100000
2023-03-31T05:43:00.470Z,10.100000
2023-03-31T05:44:00.576Z,10.100000
2023-03-31T05:45:03.383Z,10.900000
2023-03-31T05:46:00.599Z,10.900000
2023-03-31T05:47:00.493Z,10.900000
2023-03-31T05:48:00.669Z,13.000000
2023-03-31T05:49:00.541Z,13.000000
2023-03-31T05:50:03.700Z,13.000000
2023-03-31T05:51:00.534Z,13.000000
2023-03-31T05:52:00.629Z,13.000000
2023-03-31T05:53:00.524Z,8.700000
2023-03-31T05:54:00.623Z,8.700000
2023-03-31T05:55:03.607Z,10.300000
2023-03-31T05:56:00.651Z,10.300000
2023-03-31T05:57:00.801Z,10.300000
2023-03-31T05:58:00.672Z,10.900000
2023-03-31T05:59:00.552Z,10.900000
2023-03-31T06:00:03.940Z,10.900000
2023-03-31T06:01:00.678Z,13.400000
2023-03-31T06:02:00.752Z,13.400000
2023-03-31T06:03:00.864Z,11.500000
2023-03-31T06:04:00.715Z,11.500000
2023-03-31T06:05:03.335Z,9.900000
2023-03-31T06:06:00.685Z,9.900000
2023-03-31T06:07:00.600Z,9.900000
2023-03-31T06:08:00.681Z,8.400000
2023-03-31T06:09:00.651Z,8.400000
2023-03-31T06:10:05.057Z,8.400000
2023-03-31T06:11:00.607Z,7.400000
2023-03-31T06:12:00.702Z,7.400000
2023-03-31T06:13:00.603Z,7.400000
2023-03-31T06:14:00.679Z,7.200000
2023-03-31T06:15:52.034Z,8.900000
2023-03-31T06:16:00.717Z,8.900000
2023-03-31T06:17:00.619Z,8.900000
2023-03-31T06:18:00.750Z,8.900000
2023-03-31T06:19:00.627Z,8.900000
2023-03-31T06:20:15.999Z,8.900000
2023-03-31T06:21:00.714Z,14.700000
2023-03-31T06:22:00.764Z,14.700000
2023-03-31T06:23:00.647Z,14.700000
2023-03-31T06:24:00.764Z,14.700000
2023-03-31T06:25:51.930Z,12.100000
2023-03-31T06:26:00.735Z,12.100000
2023-03-31T06:27:00.695Z,12.100000
2023-03-31T06:28:00.741Z,11.500000
2023-03-31T06:29:00.698Z,11.500000
2023-03-31T06:30:03.891Z,11.500000
2023-03-31T06:31:00.705Z,12.700000
2023-03-31T06:32:00.817Z,12.700000
2023-03-31T06:33:01.115Z,12.700000
2023-03-31T06:34:00.758Z,14.800000
2023-03-31T06:35:07.604Z,14.800000
2023-03-31T06:36:00.863Z,14.800000
2023-03-31T06:37:00.694Z,14.800000
2023-03-31T06:38:00.767Z,8.200000
2023-03-31T06:39:00.763Z,8.200000
2023-03-31T06:40:05.249Z,10.500000
2023-03-31T06:41:00.725Z,10.500000
2023-03-31T06:42:00.823Z,10.500000
2023-03-31T06:43:01.136Z,14.400000
2023-03-31T06:44:01.334Z,14.400000
2023-03-31T06:45:04.180Z,14.400000
2023-03-31T06:46:01.356Z,18.100000
2023-03-31T06:47:01.132Z,18.100000
2023-03-31T06:48:01.296Z,18.100000
2023-03-31T06:49:01.144Z,18.100000
2023-03-31T06:50:04.737Z,8.700000
2023-03-31T06:51:01.255Z,8.700000
2023-03-31T06:52:01.258Z,8.700000
2023-03-31T06:53:01.246Z,9.000000
2023-03-31T06:54:00.852Z,9.000000
2023-03-31T06:55:04.622Z,9.000000
2023-03-31T06:56:01.067Z,9.000000
2023-03-31T06:57:00.830Z,9.000000
2023-03-31T06:58:00.881Z,13.700000
2023-03-31T06:59:00.837Z,13.700000
2023-03-31T07:00:04.406Z,13.700000
2023-03-31T07:01:00.920Z,13.700000
2023-03-31T07:02:01.120Z,13.700000
2023-03-31T07:03:00.963Z,13.700000
2023-03-31T07:05:09.531Z,13.200000
2023-03-31T07:06:01.166Z,7.900000
2023-03-31T07:07:00.919Z,7.900000
2023-03-31T07:08:01.068Z,7.900000
2023-03-31T07:09:00.927Z,10.200000
2023-03-31T07:10:05.057Z,10.200000
2023-03-31T07:11:00.965Z,13.200000
2023-03-31T07:12:01.035Z,13.200000
2023-03-31T07:13:01.888Z,13.200000
2023-03-31T07:14:01.042Z,13.200000
2023-03-31T07:16:01.090Z,13.300000
2023-03-31T07:17:00.952Z,13.300000
2023-03-31T07:18:01.084Z,13.300000
2023-03-31T07:19:00.942Z,10.300000
2023-03-31T07:20:05.774Z,10.300000
2023-03-31T07:21:00.983Z,10.200000
2023-03-31T07:22:01.117Z,10.200000
2023-03-31T07:23:00.971Z,10.200000
2023-03-31T07:24:01.075Z,10.200000
2023-03-31T07:25:03.804Z,10.200000
2023-03-31T07:26:01.073Z,13.000000
2023-03-31T07:27:00.991Z,13.000000
2023-03-31T07:34:44.034Z,10.800000
2023-03-31T07:35:03.776Z,10.800000
2023-03-31T07:36:11.568Z,13.600000
2023-03-31T07:37:01.047Z,13.600000
2023-03-31T07:38:02.183Z,13.600000
2023-03-31T07:39:01.124Z,13.600000
2023-03-31T07:40:04.554Z,13.600000
2023-03-31T07:41:08.486Z,13.600000
2023-03-31T07:42:01.234Z,11.200000
2023-03-31T07:43:01.100Z,11.200000
2023-03-31T07:44:01.196Z,9.400000
2023-03-31T07:45:05.651Z,9.400000
2023-03-31T07:46:02.239Z,11.700000
2023-03-31T07:47:01.365Z,11.700000
2023-03-31T07:48:01.219Z,11.700000
2023-03-31T07:49:01.214Z,19.000000
2023-03-31T07:50:19.848Z,19.000000
2023-03-31T07:51:01.165Z,19.000000
2023-03-31T07:52:04.357Z,9.700000
2023-03-31T07:53:01.120Z,9.700000
2023-03-31T07:54:01.222Z,9.800000
2023-03-31T07:55:05.333Z,9.800000
2023-03-31T07:56:08.439Z,9.800000
2023-03-31T07:57:01.975Z,9.800000
2023-03-31T07:58:02.257Z,9.800000
2023-03-31T07:59:01.135Z,12.800000
2023-03-31T08:00:05.634Z,12.800000
2023-03-31T08:01:00.172Z,12.800000
2023-03-31T08:02:03.805Z,12.800000
2023-03-31T08:03:00.205Z,12.800000
2023-03-31T08:04:01.146Z,10.400000
2023-03-31T08:05:52.478Z,10.400000
2023-03-31T08:06:01.321Z,10.400000
2023-03-31T08:07:00.182Z,10.400000
2023-03-31T08:08:00.324Z,10.400000
2023-03-31T08:09:00.211Z,15.100000
2023-03-31T08:10:03.447Z,15.100000
2023-03-31T08:11:00.354Z,15.100000
2023-03-31T08:12:02.234Z,14.000000
2023-03-31T08:13:01.314Z,14.000000
2023-03-31T08:14:00.311Z,8.100000
2023-03-31T08:15:03.020Z,8.100000
2023-03-31T08:16:00.311Z,8.100000
2023-03-31T08:17:00.264Z,11.600000
2023-03-31T08:18:03.492Z,11.600000
2023-03-31T08:19:00.241Z,11.600000
2023-03-31T08:20:08.311Z,11.600000
2023-03-31T08:21:00.297Z,11.600000
2023-03-31T08:22:01.386Z,13.000000
2023-03-31T08:23:00.265Z,13.000000
2023-03-31T08:24:00.333Z,13.000000
2023-03-31T08:25:02.964Z,13.500000
2023-03-31T08:26:03.566Z,13.500000
2023-03-31T08:27:00.291Z,11.900000
2023-03-31T08:33:28.629Z,8.800000
2023-03-31T08:34:00.392Z,8.800000
2023-03-31T08:35:02.959Z,10.000000
2023-03-31T08:36:00.468Z,10.000000
2023-03-31T08:37:00.526Z,11.300000
2023-03-31T08:38:00.513Z,11.300000
2023-03-31T08:39:00.445Z,11.300000
2023-03-31T08:40:03.556Z,11.300000
2023-03-31T08:41:00.362Z,11.300000
2023-03-31T08:42:00.430Z,8.700000
2023-03-31T08:43:00.362Z,8.700000
2023-03-31T08:44:00.454Z,8.700000
2023-03-31T08:45:03.131Z,18.700000
2023-03-31T08:46:00.516Z,18.700000
2023-03-31T08:47:00.384Z,18.700000
2023-03-31T08:48:00.538Z,18.700000
2023-03-31T08:49:00.432Z,18.700000
2023-03-31T08:50:03.603Z,9.900000
2023-03-31T08:51:00.646Z,9.900000
2023-03-31T08:52:00.511Z,9.900000
2023-03-31T08:53:00.466Z,7.300000
2023-03-31T08:54:00.538Z,7.300000
2023-03-31T08:55:03.119Z,8.800000
2023-03-31T08:56:00.556Z,8.800000
2023-03-31T08:57:00.508Z,8.800000
2023-03-31T08:58:00.528Z,10.700000
2023-03-31T08:59:00.511Z,10.700000
2023-03-31T09:00:07.059Z,8.700000
2023-03-31T09:01:00.516Z,8.700000
2023-03-31T09:02:00.584Z,8.700000
2023-03-31T09:03:00.679Z,8.800000
2023-03-31T09:04:00.976Z,8.800000
2023-03-31T09:05:10.829Z,8.800000
2023-03-31T09:06:01.284Z,8.800000
2023-03-31T09:07:00.494Z,8.800000
2023-03-31T09:08:01.588Z,11.100000
2023-03-31T09:09:00.517Z,11.100000
2023-03-31T09:10:06.070Z,11.100000
2023-03-31T09:11:00.511Z,11.100000
2023-03-31T09:12:00.628Z,11.100000
2023-03-31T09:13:00.531Z,11.000000
2023-03-31T09:14:00.881Z,11.000000
2023-03-31T09:15:03.347Z,11.000000
2023-03-31T09:16:01.374Z,11.000000
2023-03-31T09:17:00.586Z,12.700000
2023-03-31T09:18:01.837Z,12.700000
2023-03-31T09:19:00.541Z,12.700000
2023-03-31T09:20:04.021Z,12.700000
2023-03-31T09:21:00.567Z,12.700000
2023-03-31T09:22:00.658Z,12.700000
2023-03-31T09:23:00.563Z,9.200000
2023-03-31T09:24:01.228Z,9.200000
2023-03-31T09:25:03.420Z,7.800000
2023-03-31T09:26:00.674Z,7.800000
2023-03-31T09:27:00.830Z,7.900000
2023-03-31T09:28:00.655Z,7.900000
2023-03-31T09:29:00.603Z,7.900000
2023-03-31T09:30:03.834Z,14.400000
2023-03-31T09:31:00.613Z,14.400000
2023-03-31T09:32:00.765Z,14.400000
2023-03-31T09:33:00.657Z,14.400000
2023-03-31T09:34:00.695Z,14.400000
2023-03-31T09:35:03.336Z,14.400000
2023-03-31T09:36:00.749Z,8.700000
2023-03-31T09:37:00.633Z,8.700000
2023-03-31T09:38:00.720Z,9.300000
2023-03-31T09:39:00.707Z,9.300000
2023-03-31T09:40:04.446Z,9.800000
2023-03-31T09:41:00.653Z,9.800000
2023-03-31T09:42:00.771Z,9.800000
2023-03-31T09:43:00.668Z,12.600000
2023-03-31T09:44:00.754Z,12.600000
2023-03-31T09:45:03.795Z,12.600000
2023-03-31T09:46:15.111Z,12.600000
2023-03-31T09:47:00.723Z,12.600000
2023-03-31T09:48:00.851Z,11.500000
2023-03-31T09:49:00.688Z,11.500000
2023-03-31T09:50:04.139Z,10.700000
2023-03-31T09:51:00.697Z,10.700000
2023-03-31T09:52:00.777Z,10.700000
2023-03-31T09:53:00.721Z,9.000000
2023-03-31T09:54:00.785Z,9.000000
2023-03-31T09:55:06.081Z,12.900000
2023-03-31T09:56:00.823Z,12.900000
2023-03-31T09:57:00.754Z,12.900000
2023-03-31T09:58:00.805Z,12.900000
2023-03-31T09:59:00.818Z,12.900000
2023-03-31T10:00:05.221Z,15.800000
2023-03-31T10:01:00.931Z,15.800000
2023-03-31T10:02:00.866Z,15.800000
2023-03-31T10:03:00.825Z,15.800000
2023-03-31T10:04:00.859Z,15.800000
2023-03-31T10:05:03.573Z,15.800000
2023-03-31T10:06:00.869Z,12.200000
2023-03-31T10:07:00.792Z,12.200000
2023-03-31T10:08:00.843Z,14.500000
2023-03-31T10:09:00.793Z,14.500000
2023-03-31T10:10:05.027Z,14.500000
2023-03-31T10:11:00.810Z,14.500000
2023-03-31T10:12:02.946Z,14.500000
2023-03-31T10:13:00.787Z,10.200000
2023-03-31T10:14:00.866Z,10.200000
2023-03-31T10:15:03.577Z,10.200000
2023-03-31T10:16:00.880Z,10.200000
2023-03-31T10:17:00.797Z,10.200000
2023-03-31T10:18:00.941Z,11.000000
2023-03-31T10:19:00.803Z,11.000000
2023-03-31T10:20:13.178Z,11.000000
2023-03-31T10:21:00.837Z,9.400000
2023-03-31T10:22:01.312Z,9.400000
2023-03-31T10:23:00.824Z,12.700000
2023-03-31T10:24:00.952Z,12.700000
2023-03-31T10:25:03.589Z,12.700000
2023-03-31T10:26:00.921Z,12.700000
2023-03-31T10:27:00.895Z,12.700000
2023-03-31T10:28:00.943Z,12.700000
2023-03-31T10:29:00.847Z,10.000000
2023-03-31T10:30:05.261Z,10.000000
2023-03-31T10:31:00.906Z,9.300000
2023-03-31T10:32:00.953Z,9.300000
2023-03-31T10:33:08.476Z,9.300000
2023-03-31T10:34:01.024Z,10.900000
2023-03-31T10:35:03.707Z,10.900000
2023-03-31T10:36:01.007Z,12.100000
2023-03-31T10:37:00.888Z,12.100000
2023-03-31T10:38:01.106Z,12.100000
2023-03-31T10:39:00.890Z,12.500000
2023-03-31T10:40:04.116Z,12.500000
2023-03-31T10:41:00.921Z,18.100000
2023-03-31T10:42:16.624Z,18.100000
2023-03-31T10:43:01.065Z,18.100000
2023-03-31T10:44:00.972Z,18.900000
2023-03-31T10:45:03.696Z,18.900000
2023-03-31T10:46:00.998Z,18.900000
2023-03-31T10:47:01.003Z,18.900000
2023-03-31T10:48:01.053Z,18.900000
2023-03-31T10:49:00.929Z,12.400000
2023-03-31T10:50:05.141Z,12.400000
2023-03-31T10:51:00.961Z,21.300000
2023-03-31T10:52:01.049Z,21.300000
2023-03-31T10:53:00.967Z,21.300000
2023-03-31T10:54:01.082Z,13.600000
2023-03-31T10:55:03.604Z,13.600000
2023-03-31T10:56:01.031Z,13.600000
2023-03-31T10:57:01.030Z,13.200000
2023-03-31T10:58:01.261Z,13.200000
2023-03-31T10:59:06.006Z,18.800000
2023-03-31T11:00:04.487Z,18.800000
2023-03-31T11:01:00.999Z,18.800000
2023-03-31T11:02:01.103Z,24.700000
2023-03-31T11:03:01.138Z,24.700000
2023-03-31T11:04:01.177Z,24.700000
2023-03-31T11:05:03.677Z,24.700000
2023-03-31T11:06:01.132Z,23.800000
2023-03-31T11:07:01.022Z,23.800000
2023-03-31T11:08:01.112Z,23.800000
2023-03-31T11:09:01.068Z,17.500000
2023-03-31T11:10:04.467Z,17.500000
2023-03-31T11:11:01.047Z,17.500000
2023-03-31T11:12:01.149Z,17.500000
2023-03-31T11:13:01.055Z,17.500000
2023-03-31T11:14:01.198Z,18.100000
2023-03-31T11:15:03.804Z,18.100000
2023-03-31T11:16:01.278Z,6.900000
2023-03-31T11:17:01.107Z,6.900000
2023-03-31T11:18:01.204Z,6.900000
2023-03-31T11:19:01.069Z,6.800000
2023-03-31T11:20:04.487Z,6.800000
2023-03-31T11:21:01.106Z,6.800000
2023-03-31T11:22:01.178Z,11.100000
2023-03-31T11:23:01.097Z,11.100000
2023-03-31T11:24:01.249Z,11.100000
2023-03-31T11:25:03.992Z,11.100000
2023-03-31T11:26:01.188Z,11.100000
2023-03-31T11:27:01.120Z,7.600000
2023-03-31T11:28:01.182Z,7.600000
2023-03-31T11:29:01.124Z,9.800000
2023-03-31T11:30:04.914Z,9.800000
2023-03-31T11:31:01.134Z,9.800000
2023-03-31T11:32:01.245Z,9.800000
2023-03-31T11:33:01.200Z,9.800000
2023-03-31T11:34:01.222Z,8.400000
2023-03-31T11:35:03.900Z,8.400000
2023-03-31T11:36:01.743Z,11.700000
2023-03-31T11:37:00.153Z,11.700000
2023-03-31T11:38:00.226Z,11.700000
2023-03-31T11:39:00.173Z,11.700000
2023-03-31T11:40:06.425Z,11.700000
2023-03-31T11:41:00.171Z,11.000000
2023-03-31T11:42:01.347Z,11.000000
2023-03-31T11:43:00.242Z,11.000000
2023-03-31T11:44:00.276Z,9.100000
2023-03-31T11:45:03.809Z,9.100000
2023-03-31T11:46:00.374Z,9.100000
2023-03-31T11:47:00.234Z,9.100000